sensor_id;sensor_type;location;lat;lon;timestamp;pressure;altitude;pressure_sealevel;temperature;humidity
28310;BME280;15571;50.974;13.936;2023-12-04T00:00:50;100693.31;;;0.51;nan
28310;BME280;15571;50.974;13.936;2023-12-04T00:03:52;100686.91;;;0.41;nan
28310;BME280;15571;50.974;13.936;2023-12-04T00:06:57;100687.53;;;0.35;nan
28310;BME280;15571;50.974;13.936;2023-12-04T00:10:00;100687.28;;;0.29;nan
28310;BME280;15571;50.974;13.936;2023-12-04T00:13:04;100698.44;;;0.29;nan
28310;BME280;15571;50.974;13.936;2023-12-04T00:16:08;100693.28;;;0.29;nan
28310;BME280;15571;50.974;13.936;2023-12-04T00:19:10;100711.94;;;0.24;nan
28310;BME280;15571;50.974;13.936;2023-12-04T00:22:13;100711.78;;;0.21;nan
28310;BME280;15571;50.974;13.936;2023-12-04T00:25:15;100700.56;;;0.19;nan
28310;BME280;15571;50.974;13.936;2023-12-04T00:28:17;100694.50;;;0.18;nan
28310;BME280;15571;50.974;13.936;2023-12-04T00:31:20;100704.41;;;0.09;nan
28310;BME280;15571;50.974;13.936;2023-12-04T00:34:25;100701.69;;;0.06;nan
28310;BME280;15571;50.974;13.936;2023-12-04T00:37:26;100698.09;;;0.02;nan
28310;BME280;15571;50.974;13.936;2023-12-04T00:40:29;100687.38;;;-0.07;nan
28310;BME280;15571;50.974;13.936;2023-12-04T00:43:31;100693.47;;;-0.05;nan
28310;BME280;15571;50.974;13.936;2023-12-04T00:46:34;100696.88;;;-0.06;nan
28310;BME280;15571;50.974;13.936;2023-12-04T00:49:39;100690.84;;;-0.07;nan
28310;BME280;15571;50.974;13.936;2023-12-04T00:52:41;100692.53;;;-0.07;nan
28310;BME280;15571;50.974;13.936;2023-12-04T00:55:45;100691.38;;;-0.14;nan
28310;BME280;15571;50.974;13.936;2023-12-04T00:58:49;100688.72;;;-0.16;nan
28310;BME280;15571;50.974;13.936;2023-12-04T01:01:52;100683.41;;;-0.01;nan
28310;BME280;15571;50.974;13.936;2023-12-04T01:04:55;100671.28;;;-0.03;nan
28310;BME280;15571;50.974;13.936;2023-12-04T01:07:57;100675.31;;;-0.08;nan
28310;BME280;15571;50.974;13.936;2023-12-04T01:10:58;100664.94;;;-0.29;nan
28310;BME280;15571;50.974;13.936;2023-12-04T01:14:03;100667.72;;;-0.25;nan
28310;BME280;15571;50.974;13.936;2023-12-04T01:17:07;100667.47;;;-0.31;nan
28310;BME280;15571;50.974;13.936;2023-12-04T01:20:09;100673.63;;;-0.27;nan
28310;BME280;15571;50.974;13.936;2023-12-04T01:23:11;100673.31;;;-0.34;nan
28310;BME280;15571;50.974;13.936;2023-12-04T01:26:12;100684.50;;;-0.33;nan
28310;BME280;15571;50.974;13.936;2023-12-04T01:29:14;100685.28;;;-0.54;nan
28310;BME280;15571;50.974;13.936;2023-12-04T01:32:25;100692.72;;;-0.60;nan
28310;BME280;15571;50.974;13.936;2023-12-04T01:35:27;100689.97;;;-0.63;nan
28310;BME280;15571;50.974;13.936;2023-12-04T01:38:30;100698.50;;;-0.64;nan
28310;BME280;15571;50.974;13.936;2023-12-04T01:41:32;100688.22;;;-0.64;nan
28310;BME280;15571;50.974;13.936;2023-12-04T01:44:36;100703.81;;;-0.61;nan
28310;BME280;15571;50.974;13.936;2023-12-04T01:47:39;100694.06;;;-0.49;nan
28310;BME280;15571;50.974;13.936;2023-12-04T01:50:41;100694.00;;;-0.50;nan
28310;BME280;15571;50.974;13.936;2023-12-04T01:53:43;100691.44;;;-0.50;nan
28310;BME280;15571;50.974;13.936;2023-12-04T01:56:46;100694.47;;;-0.59;nan
28310;BME280;15571;50.974;13.936;2023-12-04T01:59:48;100693.63;;;-0.58;nan
28310;BME280;15571;50.974;13.936;2023-12-04T02:02:51;100696.09;;;-0.61;nan
28310;BME280;15571;50.974;13.936;2023-12-04T02:05:54;100701.44;;;-0.56;nan
28310;BME280;15571;50.974;13.936;2023-12-04T02:08:56;100693.50;;;-0.61;nan
28310;BME280;15571;50.974;13.936;2023-12-04T02:11:58;100679.09;;;-0.57;nan
28310;BME280;15571;50.974;13.936;2023-12-04T02:15:03;100678.09;;;-0.61;nan
28310;BME280;15571;50.974;13.936;2023-12-04T02:18:08;100677.41;;;-0.57;nan
28310;BME280;15571;50.974;13.936;2023-12-04T02:21:10;100676.59;;;-0.56;nan
28310;BME280;15571;50.974;13.936;2023-12-04T02:24:14;100658.06;;;-0.49;nan
28310;BME280;15571;50.974;13.936;2023-12-04T02:27:20;100655.38;;;-0.52;nan
28310;BME280;15571;50.974;13.936;2023-12-04T02:30:24;100646.03;;;-0.50;nan
28310;BME280;15571;50.974;13.936;2023-12-04T02:33:26;100647.94;;;-0.45;nan
28310;BME280;15571;50.974;13.936;2023-12-04T02:36:29;100643.69;;;-0.45;nan
28310;BME280;15571;50.974;13.936;2023-12-04T02:39:34;100644.16;;;-0.34;nan
28310;BME280;15571;50.974;13.936;2023-12-04T02:42:38;100651.28;;;-0.28;nan
28310;BME280;15571;50.974;13.936;2023-12-04T02:45:40;100635.06;;;-0.45;nan
28310;BME280;15571;50.974;13.936;2023-12-04T02:48:42;100632.47;;;-0.27;nan
28310;BME280;15571;50.974;13.936;2023-12-04T02:51:45;100625.09;;;-0.20;nan
28310;BME280;15571;50.974;13.936;2023-12-04T02:54:48;100618.50;;;-0.33;nan
28310;BME280;15571;50.974;13.936;2023-12-04T02:57:50;100611.66;;;-0.32;nan
28310;BME280;15571;50.974;13.936;2023-12-04T03:00:52;100606.63;;;-0.29;nan
28310;BME280;15571;50.974;13.936;2023-12-04T03:03:54;100599.06;;;-0.26;nan
28310;BME280;15571;50.974;13.936;2023-12-04T03:06:56;100598.41;;;-0.22;nan
28310;BME280;15571;50.974;13.936;2023-12-04T03:10:03;100596.09;;;-0.16;nan
28310;BME280;15571;50.974;13.936;2023-12-04T03:13:05;100585.25;;;-0.08;nan
28310;BME280;15571;50.974;13.936;2023-12-04T03:16:14;100583.38;;;-0.12;nan
28310;BME280;15571;50.974;13.936;2023-12-04T03:19:19;100584.53;;;-0.06;nan
28310;BME280;15571;50.974;13.936;2023-12-04T03:22:21;100586.19;;;-0.06;nan
28310;BME280;15571;50.974;13.936;2023-12-04T03:25:27;100592.56;;;0.02;nan
28310;BME280;15571;50.974;13.936;2023-12-04T03:28:31;100586.91;;;-0.10;nan
28310;BME280;15571;50.974;13.936;2023-12-04T03:31:32;100576.59;;;-0.10;nan
28310;BME280;15571;50.974;13.936;2023-12-04T03:34:36;100581.44;;;0.03;nan
28310;BME280;15571;50.974;13.936;2023-12-04T03:37:38;100576.03;;;-0.03;nan
28310;BME280;15571;50.974;13.936;2023-12-04T03:40:42;100577.53;;;-0.08;nan
28310;BME280;15571;50.974;13.936;2023-12-04T03:43:44;100580.78;;;-0.12;nan
28310;BME280;15571;50.974;13.936;2023-12-04T03:46:45;100571.38;;;-0.12;nan
28310;BME280;15571;50.974;13.936;2023-12-04T03:49:47;100567.13;;;-0.11;nan
28310;BME280;15571;50.974;13.936;2023-12-04T03:52:49;100564.84;;;-0.04;nan
28310;BME280;15571;50.974;13.936;2023-12-04T03:55:53;100566.84;;;-0.18;nan
28310;BME280;15571;50.974;13.936;2023-12-04T03:58:54;100566.22;;;-0.12;nan
28310;BME280;15571;50.974;13.936;2023-12-04T04:01:56;100559.13;;;-0.18;nan
28310;BME280;15571;50.974;13.936;2023-12-04T04:04:58;100561.69;;;-0.18;nan
28310;BME280;15571;50.974;13.936;2023-12-04T04:08:00;100566.97;;;-0.14;nan
28310;BME280;15571;50.974;13.936;2023-12-04T04:11:04;100569.94;;;-0.05;nan
28310;BME280;15571;50.974;13.936;2023-12-04T04:14:09;100574.09;;;-0.09;nan
28310;BME280;15571;50.974;13.936;2023-12-04T04:17:11;100569.34;;;0.01;nan
28310;BME280;15571;50.974;13.936;2023-12-04T04:20:15;100560.31;;;-0.09;nan
28310;BME280;15571;50.974;13.936;2023-12-04T04:23:17;100548.00;;;-0.17;nan
28310;BME280;15571;50.974;13.936;2023-12-04T04:26:20;100553.78;;;-0.22;nan
28310;BME280;15571;50.974;13.936;2023-12-04T04:29:22;100542.63;;;-0.23;nan
28310;BME280;15571;50.974;13.936;2023-12-04T04:32:25;100552.59;;;-0.09;nan
28310;BME280;15571;50.974;13.936;2023-12-04T04:35:26;100558.19;;;0.00;nan
28310;BME280;15571;50.974;13.936;2023-12-04T04:38:30;100546.25;;;-0.18;nan
28310;BME280;15571;50.974;13.936;2023-12-04T04:41:33;100544.28;;;-0.23;nan
28310;BME280;15571;50.974;13.936;2023-12-04T04:44:35;100543.09;;;-0.32;nan
28310;BME280;15571;50.974;13.936;2023-12-04T04:47:37;100530.16;;;-0.33;nan
28310;BME280;15571;50.974;13.936;2023-12-04T04:50:42;100536.50;;;-0.25;nan
28310;BME280;15571;50.974;13.936;2023-12-04T04:53:44;100529.03;;;-0.19;nan
28310;BME280;15571;50.974;13.936;2023-12-04T04:56:48;100534.91;;;-0.23;nan
28310;BME280;15571;50.974;13.936;2023-12-04T04:59:51;100532.19;;;-0.26;nan
28310;BME280;15571;50.974;13.936;2023-12-04T05:02:53;100532.03;;;-0.29;nan
28310;BME280;15571;50.974;13.936;2023-12-04T05:05:55;100529.06;;;-0.38;nan
28310;BME280;15571;50.974;13.936;2023-12-04T05:08:57;100525.22;;;-0.48;nan
28310;BME280;15571;50.974;13.936;2023-12-04T05:12:00;100520.34;;;-0.42;nan
28310;BME280;15571;50.974;13.936;2023-12-04T05:15:02;100525.28;;;-0.47;nan
28310;BME280;15571;50.974;13.936;2023-12-04T05:18:04;100523.50;;;-0.48;nan
28310;BME280;15571;50.974;13.936;2023-12-04T05:21:09;100534.63;;;-0.49;nan
28310;BME280;15571;50.974;13.936;2023-12-04T05:24:11;100534.91;;;-0.42;nan
28310;BME280;15571;50.974;13.936;2023-12-04T05:27:15;100535.06;;;-0.39;nan
28310;BME280;15571;50.974;13.936;2023-12-04T05:30:17;100538.28;;;-0.43;nan
28310;BME280;15571;50.974;13.936;2023-12-04T05:33:19;100523.59;;;-0.46;nan
28310;BME280;15571;50.974;13.936;2023-12-04T05:36:21;100534.00;;;-0.43;nan
28310;BME280;15571;50.974;13.936;2023-12-04T05:39:22;100541.66;;;-0.44;nan
28310;BME280;15571;50.974;13.936;2023-12-04T05:42:26;100537.13;;;-0.50;nan
28310;BME280;15571;50.974;13.936;2023-12-04T05:45:30;100521.34;;;-0.38;nan
28310;BME280;15571;50.974;13.936;2023-12-04T05:48:35;100515.53;;;-0.34;nan
28310;BME280;15571;50.974;13.936;2023-12-04T05:51:37;100517.13;;;-0.17;nan
28310;BME280;15571;50.974;13.936;2023-12-04T05:54:38;100507.84;;;-0.13;nan
28310;BME280;15571;50.974;13.936;2023-12-04T05:57:43;100497.50;;;-0.14;nan
28310;BME280;15571;50.974;13.936;2023-12-04T06:00:45;100491.41;;;-0.17;nan
28310;BME280;15571;50.974;13.936;2023-12-04T06:03:46;100482.44;;;-0.05;nan
28310;BME280;15571;50.974;13.936;2023-12-04T06:06:48;100482.00;;;0.05;nan
28310;BME280;15571;50.974;13.936;2023-12-04T06:09:51;100474.97;;;0.01;nan
28310;BME280;15571;50.974;13.936;2023-12-04T06:12:54;100466.81;;;0.11;nan
28310;BME280;15571;50.974;13.936;2023-12-04T06:15:56;100473.34;;;0.03;nan
28310;BME280;15571;50.974;13.936;2023-12-04T06:18:59;100471.66;;;0.04;nan
28310;BME280;15571;50.974;13.936;2023-12-04T06:22:01;100457.78;;;0.00;nan
28310;BME280;15571;50.974;13.936;2023-12-04T06:25:03;100458.97;;;0.08;nan
28310;BME280;15571;50.974;13.936;2023-12-04T06:28:07;100461.03;;;-0.04;nan
28310;BME280;15571;50.974;13.936;2023-12-04T06:31:15;100457.47;;;-0.08;nan
28310;BME280;15571;50.974;13.936;2023-12-04T06:34:20;100469.81;;;0.01;nan
28310;BME280;15571;50.974;13.936;2023-12-04T06:37:25;100469.94;;;0.04;nan
28310;BME280;15571;50.974;13.936;2023-12-04T06:40:30;100466.44;;;0.02;nan
28310;BME280;15571;50.974;13.936;2023-12-04T06:43:34;100469.72;;;-0.02;nan
28310;BME280;15571;50.974;13.936;2023-12-04T06:46:40;100469.72;;;-0.02;nan
28310;BME280;15571;50.974;13.936;2023-12-04T06:49:45;100467.94;;;0.18;nan
28310;BME280;15571;50.974;13.936;2023-12-04T06:52:49;100471.41;;;0.19;nan
28310;BME280;15571;50.974;13.936;2023-12-04T06:55:51;100467.69;;;0.12;nan
28310;BME280;15571;50.974;13.936;2023-12-04T06:58:55;100470.47;;;0.17;nan
28310;BME280;15571;50.974;13.936;2023-12-04T07:01:59;100468.53;;;-0.10;nan
28310;BME280;15571;50.974;13.936;2023-12-04T07:05:02;100467.81;;;-0.06;nan
28310;BME280;15571;50.974;13.936;2023-12-04T07:08:04;100457.66;;;-0.03;nan
28310;BME280;15571;50.974;13.936;2023-12-04T07:11:07;100458.66;;;0.01;nan
28310;BME280;15571;50.974;13.936;2023-12-04T07:14:10;100467.06;;;-0.04;nan
28310;BME280;15571;50.974;13.936;2023-12-04T07:17:12;100476.63;;;-0.01;nan
28310;BME280;15571;50.974;13.936;2023-12-04T07:20:14;100483.16;;;0.12;nan
28310;BME280;15571;50.974;13.936;2023-12-04T07:23:19;100482.81;;;0.04;nan
28310;BME280;15571;50.974;13.936;2023-12-04T07:26:21;100482.16;;;0.08;nan
28310;BME280;15571;50.974;13.936;2023-12-04T07:29:25;100480.63;;;0.13;nan
28310;BME280;15571;50.974;13.936;2023-12-04T07:32:30;100486.28;;;0.05;nan
28310;BME280;15571;50.974;13.936;2023-12-04T07:35:33;100472.72;;;0.09;nan
28310;BME280;15571;50.974;13.936;2023-12-04T07:38:38;100479.06;;;0.17;nan
28310;BME280;15571;50.974;13.936;2023-12-04T07:41:40;100481.56;;;0.15;nan
28310;BME280;15571;50.974;13.936;2023-12-04T07:44:43;100482.38;;;0.14;nan
28310;BME280;15571;50.974;13.936;2023-12-04T07:47:45;100477.84;;;0.30;nan
28310;BME280;15571;50.974;13.936;2023-12-04T07:50:47;100470.47;;;0.17;nan
28310;BME280;15571;50.974;13.936;2023-12-04T07:53:49;100463.91;;;0.25;nan
28310;BME280;15571;50.974;13.936;2023-12-04T07:56:54;100453.84;;;0.31;nan
28310;BME280;15571;50.974;13.936;2023-12-04T08:00:00;100454.34;;;0.43;nan
28310;BME280;15571;50.974;13.936;2023-12-04T08:03:05;100455.88;;;0.38;nan
28310;BME280;15571;50.974;13.936;2023-12-04T08:06:07;100456.75;;;0.39;nan
28310;BME280;15571;50.974;13.936;2023-12-04T08:09:09;100461.75;;;0.57;nan
28310;BME280;15571;50.974;13.936;2023-12-04T08:12:12;100448.44;;;0.69;nan
28310;BME280;15571;50.974;13.936;2023-12-04T08:15:15;100444.28;;;0.72;nan
28310;BME280;15571;50.974;13.936;2023-12-04T08:18:17;100446.66;;;0.66;nan
28310;BME280;15571;50.974;13.936;2023-12-04T08:21:19;100445.22;;;0.97;nan
28310;BME280;15571;50.974;13.936;2023-12-04T08:24:21;100436.56;;;0.95;nan
28310;BME280;15571;50.974;13.936;2023-12-04T08:27:23;100444.63;;;1.04;nan
28310;BME280;15571;50.974;13.936;2023-12-04T08:30:26;100439.03;;;1.16;nan
28310;BME280;15571;50.974;13.936;2023-12-04T08:33:31;100436.50;;;1.18;nan
28310;BME280;15571;50.974;13.936;2023-12-04T08:36:33;100439.16;;;1.19;nan
28310;BME280;15571;50.974;13.936;2023-12-04T08:39:41;100438.25;;;1.19;nan
28310;BME280;15571;50.974;13.936;2023-12-04T08:42:44;100431.94;;;1.11;nan
28310;BME280;15571;50.974;13.936;2023-12-04T08:45:48;100426.63;;;1.30;nan
28310;BME280;15571;50.974;13.936;2023-12-04T08:48:50;100437.88;;;1.32;nan
28310;BME280;15571;50.974;13.936;2023-12-04T08:51:52;100432.91;;;1.38;nan
28310;BME280;15571;50.974;13.936;2023-12-04T08:54:54;100431.44;;;1.45;nan
28310;BME280;15571;50.974;13.936;2023-12-04T08:57:56;100416.28;;;1.54;nan
28310;BME280;15571;50.974;13.936;2023-12-04T09:00:59;100421.28;;;1.50;nan
28310;BME280;15571;50.974;13.936;2023-12-04T09:04:04;100421.44;;;1.54;nan
28310;BME280;15571;50.974;13.936;2023-12-04T09:07:06;100414.66;;;1.58;nan
28310;BME280;15571;50.974;13.936;2023-12-04T09:10:10;100414.06;;;1.65;nan
28310;BME280;15571;50.974;13.936;2023-12-04T09:13:15;100407.81;;;1.84;nan
28310;BME280;15571;50.974;13.936;2023-12-04T09:16:19;100409.31;;;1.78;nan
28310;BME280;15571;50.974;13.936;2023-12-04T09:19:21;100402.00;;;1.92;nan
28310;BME280;15571;50.974;13.936;2023-12-04T09:22:23;100398.47;;;1.88;nan
28310;BME280;15571;50.974;13.936;2023-12-04T09:25:25;100404.56;;;1.90;nan
28310;BME280;15571;50.974;13.936;2023-12-04T09:28:27;100407.53;;;2.02;nan
28310;BME280;15571;50.974;13.936;2023-12-04T09:31:30;100395.72;;;2.09;nan
28310;BME280;15571;50.974;13.936;2023-12-04T09:34:32;100395.19;;;1.94;nan
28310;BME280;15571;50.974;13.936;2023-12-04T09:37:34;100388.53;;;2.00;nan
28310;BME280;15571;50.974;13.936;2023-12-04T09:40:36;100384.34;;;2.04;nan
28310;BME280;15571;50.974;13.936;2023-12-04T09:43:38;100384.78;;;2.18;nan
28310;BME280;15571;50.974;13.936;2023-12-04T09:46:43;100376.66;;;2.06;nan
28310;BME280;15571;50.974;13.936;2023-12-04T09:49:48;100378.13;;;2.26;nan
28310;BME280;15571;50.974;13.936;2023-12-04T09:52:52;100373.47;;;2.14;nan
28310;BME280;15571;50.974;13.936;2023-12-04T09:55:55;100366.16;;;2.28;nan
28310;BME280;15571;50.974;13.936;2023-12-04T09:59:00;100351.94;;;2.43;nan
28310;BME280;15571;50.974;13.936;2023-12-04T10:02:04;100351.47;;;2.56;nan
28310;BME280;15571;50.974;13.936;2023-12-04T10:05:11;100337.81;;;2.60;nan
28310;BME280;15571;50.974;13.936;2023-12-04T10:08:14;100336.97;;;2.61;nan
28310;BME280;15571;50.974;13.936;2023-12-04T10:11:17;100321.41;;;2.60;nan
28310;BME280;15571;50.974;13.936;2023-12-04T10:14:20;100318.53;;;2.49;nan
28310;BME280;15571;50.974;13.936;2023-12-04T10:17:28;100327.22;;;2.51;nan
28310;BME280;15571;50.974;13.936;2023-12-04T10:20:34;100311.00;;;2.57;nan
28310;BME280;15571;50.974;13.936;2023-12-04T10:23:37;100309.84;;;2.47;nan
28310;BME280;15571;50.974;13.936;2023-12-04T10:26:48;100296.19;;;2.51;nan
28310;BME280;15571;50.974;13.936;2023-12-04T10:29:51;100290.59;;;2.66;nan
28310;BME280;15571;50.974;13.936;2023-12-04T10:32:56;100288.13;;;2.71;nan
28310;BME280;15571;50.974;13.936;2023-12-04T10:36:00;100284.38;;;2.59;nan
28310;BME280;15571;50.974;13.936;2023-12-04T10:39:03;100288.03;;;2.68;nan
28310;BME280;15571;50.974;13.936;2023-12-04T10:42:05;100275.94;;;2.67;nan
28310;BME280;15571;50.974;13.936;2023-12-04T10:45:08;100271.97;;;2.79;nan
28310;BME280;15571;50.974;13.936;2023-12-04T10:48:12;100274.63;;;2.81;nan
28310;BME280;15571;50.974;13.936;2023-12-04T10:51:16;100264.44;;;2.87;nan
28310;BME280;15571;50.974;13.936;2023-12-04T10:54:19;100260.78;;;2.79;nan
28310;BME280;15571;50.974;13.936;2023-12-04T10:57:21;100257.69;;;2.92;nan
28310;BME280;15571;50.974;13.936;2023-12-04T11:00:25;100250.81;;;2.94;nan
28310;BME280;15571;50.974;13.936;2023-12-04T11:03:31;100250.66;;;2.88;nan
28310;BME280;15571;50.974;13.936;2023-12-04T11:06:39;100254.31;;;2.96;nan
28310;BME280;15571;50.974;13.936;2023-12-04T11:09:41;100251.84;;;3.00;nan
28310;BME280;15571;50.974;13.936;2023-12-04T11:12:44;100235.72;;;3.10;nan
28310;BME280;15571;50.974;13.936;2023-12-04T11:15:47;100238.19;;;3.05;nan
28310;BME280;15571;50.974;13.936;2023-12-04T11:18:54;100240.41;;;2.91;nan
28310;BME280;15571;50.974;13.936;2023-12-04T11:21:58;100231.22;;;3.03;nan
28310;BME280;15571;50.974;13.936;2023-12-04T11:25:01;100221.97;;;3.13;nan
28310;BME280;15571;50.974;13.936;2023-12-04T11:28:06;100217.56;;;3.08;nan
28310;BME280;15571;50.974;13.936;2023-12-04T11:31:09;100214.22;;;3.13;nan
28310;BME280;15571;50.974;13.936;2023-12-04T11:34:12;100214.19;;;3.11;nan
28310;BME280;15571;50.974;13.936;2023-12-04T11:37:14;100195.47;;;3.21;nan
28310;BME280;15571;50.974;13.936;2023-12-04T11:40:16;100199.50;;;3.10;nan
28310;BME280;15571;50.974;13.936;2023-12-04T11:43:21;100182.09;;;3.03;nan
28310;BME280;15571;50.974;13.936;2023-12-04T11:46:24;100176.72;;;2.95;nan
28310;BME280;15571;50.974;13.936;2023-12-04T11:49:28;100173.00;;;2.85;nan
28310;BME280;15571;50.974;13.936;2023-12-04T11:52:34;100152.41;;;2.88;nan
28310;BME280;15571;50.974;13.936;2023-12-04T11:55:39;100148.91;;;2.86;nan
28310;BME280;15571;50.974;13.936;2023-12-04T11:58:42;100145.81;;;3.00;nan
28310;BME280;15571;50.974;13.936;2023-12-04T12:01:44;100135.22;;;2.89;nan
28310;BME280;15571;50.974;13.936;2023-12-04T12:04:47;100129.16;;;2.88;nan
28310;BME280;15571;50.974;13.936;2023-12-04T12:07:50;100118.09;;;2.95;nan
28310;BME280;15571;50.974;13.936;2023-12-04T12:10:51;100114.78;;;3.00;nan
28310;BME280;15571;50.974;13.936;2023-12-04T12:13:54;100112.09;;;2.96;nan
28310;BME280;15571;50.974;13.936;2023-12-04T12:17:00;100105.38;;;3.03;nan
28310;BME280;15571;50.974;13.936;2023-12-04T12:20:03;100104.63;;;3.09;nan
28310;BME280;15571;50.974;13.936;2023-12-04T12:23:07;100097.72;;;3.08;nan
28310;BME280;15571;50.974;13.936;2023-12-04T12:26:09;100088.38;;;3.15;nan
28310;BME280;15571;50.974;13.936;2023-12-04T12:29:11;100093.69;;;3.21;nan
28310;BME280;15571;50.974;13.936;2023-12-04T12:32:13;100087.06;;;3.34;nan
28310;BME280;15571;50.974;13.936;2023-12-04T12:35:17;100085.25;;;3.28;nan
28310;BME280;15571;50.974;13.936;2023-12-04T12:38:24;100079.31;;;3.34;nan
28310;BME280;15571;50.974;13.936;2023-12-04T12:41:26;100081.59;;;3.20;nan
28310;BME280;15571;50.974;13.936;2023-12-04T12:44:30;100078.13;;;3.18;nan
28310;BME280;15571;50.974;13.936;2023-12-04T12:47:40;100081.56;;;3.18;nan
28310;BME280;15571;50.974;13.936;2023-12-04T12:50:43;100079.91;;;3.22;nan
28310;BME280;15571;50.974;13.936;2023-12-04T12:53:45;100070.38;;;3.19;nan
28310;BME280;15571;50.974;13.936;2023-12-04T12:56:47;100077.97;;;3.11;nan
28310;BME280;15571;50.974;13.936;2023-12-04T12:59:49;100080.59;;;3.13;nan
28310;BME280;15571;50.974;13.936;2023-12-04T13:02:52;100090.88;;;3.10;nan
28310;BME280;15571;50.974;13.936;2023-12-04T13:05:55;100084.69;;;3.03;nan
28310;BME280;15571;50.974;13.936;2023-12-04T13:08:57;100082.13;;;3.05;nan
28310;BME280;15571;50.974;13.936;2023-12-04T13:11:59;100075.56;;;2.83;nan
28310;BME280;15571;50.974;13.936;2023-12-04T13:15:01;100068.19;;;2.98;nan
28310;BME280;15571;50.974;13.936;2023-12-04T13:18:05;100074.78;;;2.85;nan
28310;BME280;15571;50.974;13.936;2023-12-04T13:21:08;100069.56;;;2.82;nan
28310;BME280;15571;50.974;13.936;2023-12-04T13:24:11;100063.78;;;2.94;nan
28310;BME280;15571;50.974;13.936;2023-12-04T13:27:12;100065.63;;;3.00;nan
28310;BME280;15571;50.974;13.936;2023-12-04T13:30:15;100057.97;;;3.03;nan
28310;BME280;15571;50.974;13.936;2023-12-04T13:33:17;100047.44;;;2.95;nan
28310;BME280;15571;50.974;13.936;2023-12-04T13:36:21;100032.66;;;2.89;nan
28310;BME280;15571;50.974;13.936;2023-12-04T13:39:29;100034.50;;;2.95;nan
28310;BME280;15571;50.974;13.936;2023-12-04T13:42:47;100030.06;;;2.89;nan
28310;BME280;15571;50.974;13.936;2023-12-04T13:46:09;100011.97;;;2.89;nan
28310;BME280;15571;50.974;13.936;2023-12-04T13:49:14;100011.13;;;2.90;nan
28310;BME280;15571;50.974;13.936;2023-12-04T13:52:21;100009.59;;;2.99;nan
28310;BME280;15571;50.974;13.936;2023-12-04T13:55:26;99999.91;;;2.90;nan
28310;BME280;15571;50.974;13.936;2023-12-04T13:58:37;99995.44;;;2.83;nan
28310;BME280;15571;50.974;13.936;2023-12-04T14:01:41;99993.66;;;2.80;nan
28310;BME280;15571;50.974;13.936;2023-12-04T14:04:43;99996.22;;;2.78;nan
28310;BME280;15571;50.974;13.936;2023-12-04T14:07:46;99990.88;;;2.71;nan
28310;BME280;15571;50.974;13.936;2023-12-04T14:10:48;99990.66;;;2.61;nan
28310;BME280;15571;50.974;13.936;2023-12-04T14:13:50;99982.13;;;2.65;nan
28310;BME280;15571;50.974;13.936;2023-12-04T14:16:52;99982.63;;;2.49;nan
28310;BME280;15571;50.974;13.936;2023-12-04T14:19:56;99971.69;;;2.61;nan
28310;BME280;15571;50.974;13.936;2023-12-04T14:22:59;99983.72;;;2.59;nan
28310;BME280;15571;50.974;13.936;2023-12-04T14:26:01;99976.81;;;2.58;nan
28310;BME280;15571;50.974;13.936;2023-12-04T14:29:03;99967.31;;;2.58;nan
28310;BME280;15571;50.974;13.936;2023-12-04T14:32:07;99973.44;;;2.62;nan
28310;BME280;15571;50.974;13.936;2023-12-04T14:35:09;99971.56;;;2.55;nan
28310;BME280;15571;50.974;13.936;2023-12-04T14:38:12;99958.63;;;2.53;nan
28310;BME280;15571;50.974;13.936;2023-12-04T14:41:14;99966.38;;;2.53;nan
28310;BME280;15571;50.974;13.936;2023-12-04T14:44:17;99962.88;;;2.51;nan
28310;BME280;15571;50.974;13.936;2023-12-04T14:47:19;99960.28;;;2.51;nan
28310;BME280;15571;50.974;13.936;2023-12-04T14:50:21;99955.94;;;2.50;nan
28310;BME280;15571;50.974;13.936;2023-12-04T14:53:25;99955.84;;;2.45;nan
28310;BME280;15571;50.974;13.936;2023-12-04T14:56:36;99952.50;;;2.49;nan
28310;BME280;15571;50.974;13.936;2023-12-04T14:59:55;99949.75;;;2.42;nan
28310;BME280;15571;50.974;13.936;2023-12-04T15:03:14;99947.25;;;2.46;nan
28310;BME280;15571;50.974;13.936;2023-12-04T15:06:45;99944.66;;;2.45;nan
28310;BME280;15571;50.974;13.936;2023-12-04T15:10:16;99942.09;;;2.46;nan
28310;BME280;15571;50.974;13.936;2023-12-04T15:13:47;99951.63;;;2.49;nan
28310;BME280;15571;50.974;13.936;2023-12-04T15:17:11;99944.09;;;2.60;nan
28310;BME280;15571;50.974;13.936;2023-12-04T15:20:19;99939.59;;;2.51;nan
28310;BME280;15571;50.974;13.936;2023-12-04T15:23:33;99944.66;;;2.45;nan
28310;BME280;15571;50.974;13.936;2023-12-04T15:26:36;99937.78;;;2.47;nan
28310;BME280;15571;50.974;13.936;2023-12-04T15:29:37;99934.31;;;2.45;nan
28310;BME280;15571;50.974;13.936;2023-12-04T15:32:41;99931.50;;;2.36;nan
28310;BME280;15571;50.974;13.936;2023-12-04T15:35:42;99924.84;;;2.45;nan
28310;BME280;15571;50.974;13.936;2023-12-04T15:38:44;99919.56;;;2.41;nan
28310;BME280;15571;50.974;13.936;2023-12-04T15:41:47;99912.56;;;2.35;nan
28310;BME280;15571;50.974;13.936;2023-12-04T15:44:49;99909.34;;;2.45;nan
28310;BME280;15571;50.974;13.936;2023-12-04T15:47:50;99911.09;;;2.48;nan
28310;BME280;15571;50.974;13.936;2023-12-04T15:50:52;99900.59;;;2.40;nan
28310;BME280;15571;50.974;13.936;2023-12-04T15:53:54;99895.56;;;2.45;nan
28310;BME280;15571;50.974;13.936;2023-12-04T15:56:59;99879.00;;;2.37;nan
28310;BME280;15571;50.974;13.936;2023-12-04T16:00:01;99885.91;;;2.38;nan
28310;BME280;15571;50.974;13.936;2023-12-04T16:03:12;99882.38;;;2.34;nan
28310;BME280;15571;50.974;13.936;2023-12-04T16:06:16;99885.16;;;2.43;nan
28310;BME280;15571;50.974;13.936;2023-12-04T16:09:18;99876.47;;;2.40;nan
28310;BME280;15571;50.974;13.936;2023-12-04T16:12:21;99875.53;;;2.35;nan
28310;BME280;15571;50.974;13.936;2023-12-04T16:15:23;99875.56;;;2.38;nan
28310;BME280;15571;50.974;13.936;2023-12-04T16:18:25;99876.06;;;2.21;nan
28310;BME280;15571;50.974;13.936;2023-12-04T16:21:27;99874.56;;;2.31;nan
28310;BME280;15571;50.974;13.936;2023-12-04T16:24:29;99867.78;;;2.35;nan